createdAt,value
2022-12-14T00:01:08.804Z,18.60
2022-12-14T00:03:13.479Z,19.10
2022-12-14T00:05:19.753Z,17.73
2022-12-14T00:07:22.370Z,18.65
2022-12-14T00:09:25.123Z,19.08
2022-12-14T00:11:28.596Z,20.00
2022-12-14T00:13:31.202Z,18.67
2022-12-14T00:15:34.526Z,19.48
2022-12-14T00:17:37.179Z,18.58
2022-12-14T00:19:41.132Z,19.38
2022-12-14T00:21:43.767Z,18.92
2022-12-14T00:23:47.525Z,17.80
2022-12-14T00:25:50.082Z,18.85
2022-12-14T00:27:53.079Z,17.98
2022-12-14T00:29:55.904Z,18.17
2022-12-14T00:31:58.446Z,18.95
2022-12-14T00:34:01.120Z,18.70
2022-12-14T00:36:09.015Z,19.33
2022-12-14T00:38:11.611Z,18.73
2022-12-14T00:40:14.278Z,19.20
2022-12-14T00:42:16.855Z,20.75
2022-12-14T00:44:19.480Z,19.90
2022-12-14T00:46:22.146Z,20.05
2022-12-14T00:48:26.582Z,19.08
2022-12-14T00:50:29.593Z,19.63
2022-12-14T00:52:33.571Z,18.95
2022-12-14T00:54:36.153Z,18.92
2022-12-14T00:56:38.758Z,20.48
2022-12-14T00:58:41.719Z,18.70
2022-12-14T01:00:45.186Z,19.92
2022-12-14T01:02:47.850Z,20.35
2022-12-14T01:04:50.455Z,20.23
2022-12-14T01:06:54.344Z,19.30
2022-12-14T01:08:58.296Z,19.60
2022-12-14T01:11:00.877Z,21.50
2022-12-14T01:13:03.468Z,20.20
2022-12-14T01:15:06.924Z,20.67
2022-12-14T01:17:09.638Z,20.95
2022-12-14T01:19:14.059Z,20.27
2022-12-14T01:21:18.826Z,19.80
2022-12-14T01:23:21.406Z,21.52
2022-12-14T01:25:25.373Z,20.58
2022-12-14T01:27:28.010Z,19.63
2022-12-14T01:29:30.579Z,19.65
2022-12-14T01:31:35.156Z,20.73
2022-12-14T01:33:38.209Z,19.75
2022-12-14T01:35:40.783Z,20.08
2022-12-14T01:37:43.405Z,19.27
2022-12-14T01:39:46.021Z,19.50
2022-12-14T01:41:52.918Z,19.45
2022-12-14T01:43:57.121Z,19.55
2022-12-14T01:46:00.076Z,20.38
2022-12-14T01:48:04.870Z,20.10
2022-12-14T01:50:24.091Z,19.20
2022-12-14T01:52:31.576Z,20.27
2022-12-14T01:54:38.042Z,19.27
2022-12-14T01:56:43.957Z,19.90
2022-12-14T01:58:47.929Z,19.60
2022-12-14T02:00:55.117Z,20.45
2022-12-14T02:03:02.111Z,19.90
2022-12-14T02:05:09.023Z,21.08
2022-12-14T02:07:15.876Z,20.15
2022-12-14T02:09:22.504Z,21.98
2022-12-14T02:11:33.007Z,20.27
2022-12-14T02:13:39.165Z,19.25
2022-12-14T02:15:43.530Z,20.23
2022-12-14T02:17:48.079Z,20.70
2022-12-14T02:19:50.754Z,20.85
2022-12-14T02:22:18.121Z,21.65
2022-12-14T02:24:39.194Z,21.58
2022-12-14T02:27:09.079Z,22.27
2022-12-14T02:30:02.838Z,21.02
2022-12-14T02:32:17.038Z,20.90
2022-12-14T02:34:29.588Z,22.52
2022-12-14T02:36:38.569Z,22.05
2022-12-14T02:38:55.398Z,21.95
2022-12-14T02:41:06.431Z,20.85
2022-12-14T02:43:16.942Z,21.85
2022-12-14T02:45:28.103Z,21.80
2022-12-14T02:47:39.080Z,20.65
2022-12-14T02:49:54.118Z,21.13
2022-12-14T02:52:03.941Z,20.85
2022-12-14T02:54:14.192Z,20.42
2022-12-14T02:56:23.805Z,19.98
2022-12-14T02:58:30.229Z,20.95
2022-12-14T03:00:35.687Z,21.55
2022-12-14T03:02:41.972Z,20.77
2022-12-14T03:04:48.326Z,20.27
2022-12-14T03:06:58.355Z,20.67
2022-12-14T03:09:03.534Z,20.98
2022-12-14T03:11:07.967Z,22.20
2022-12-14T03:13:20.012Z,22.63
2022-12-14T03:15:27.031Z,20.48
2022-12-14T03:17:34.004Z,22.17
2022-12-14T03:19:41.918Z,21.17
2022-12-14T03:21:48.454Z,21.67
2022-12-14T03:23:53.596Z,21.30
2022-12-14T03:26:03.979Z,22.77
2022-12-14T03:28:12.980Z,20.85
2022-12-14T03:30:43.923Z,20.55
2022-12-14T03:32:49.245Z,20.10
2022-12-14T03:34:59.552Z,22.05
2022-12-14T03:37:10.587Z,20.92
2022-12-14T03:39:21.453Z,20.90
2022-12-14T03:41:32.372Z,22.03
2022-12-14T03:43:39.118Z,19.70
2022-12-14T03:45:48.483Z,21.85
2022-12-14T03:48:01.109Z,21.25
2022-12-14T03:50:11.401Z,21.02
2022-12-14T03:52:22.335Z,21.38
2022-12-14T03:54:34.832Z,19.87
2022-12-14T03:56:44.011Z,21.05
2022-12-14T03:58:59.940Z,21.63
2022-12-14T04:01:08.442Z,20.92
2022-12-14T04:03:19.561Z,20.23
2022-12-14T04:05:30.097Z,21.40
2022-12-14T04:07:39.597Z,21.23
2022-12-14T04:09:50.432Z,20.45
2022-12-14T04:12:15.807Z,20.17
2022-12-14T04:14:39.548Z,21.00
2022-12-14T04:17:03.432Z,20.55
2022-12-14T04:19:09.297Z,24.10
2022-12-14T04:21:18.170Z,20.65
2022-12-14T04:23:39.895Z,21.02
2022-12-14T04:26:06.077Z,20.20
2022-12-14T04:28:34.188Z,21.52
2022-12-14T04:30:39.774Z,20.20
2022-12-14T04:32:46.134Z,20.70
2022-12-14T04:34:52.035Z,20.67
2022-12-14T04:36:58.610Z,20.13
2022-12-14T04:39:06.096Z,20.38
2022-12-14T04:41:13.718Z,21.20
2022-12-14T04:43:20.794Z,21.92
2022-12-14T04:45:28.487Z,19.55
2022-12-14T04:47:39.739Z,20.35
2022-12-14T04:49:49.761Z,20.65
2022-12-14T04:52:04.973Z,20.17
2022-12-14T04:54:14.254Z,20.45
2022-12-14T04:56:21.350Z,21.45
2022-12-14T04:58:27.281Z,19.60
2022-12-14T05:00:33.307Z,20.77
2022-12-14T05:02:48.288Z,20.73
2022-12-14T05:05:00.755Z,19.98
2022-12-14T05:07:17.529Z,20.75
2022-12-14T05:09:24.566Z,20.85
2022-12-14T05:11:52.598Z,20.25
2022-12-14T05:13:53.879Z,20.63
2022-12-14T05:15:59.263Z,20.20
2022-12-14T05:18:03.296Z,20.25
2022-12-14T05:20:07.427Z,20.92
2022-12-14T05:22:11.400Z,21.48
2022-12-14T05:24:14.170Z,20.38
2022-12-14T05:26:16.784Z,20.92
2022-12-14T05:28:19.364Z,20.65
2022-12-14T05:30:21.998Z,19.55
2022-12-14T05:32:24.900Z,19.77
2022-12-14T05:34:27.644Z,20.67
2022-12-14T05:36:30.259Z,19.52
2022-12-14T05:38:34.211Z,21.10
2022-12-14T05:40:36.889Z,19.83
2022-12-14T05:42:44.798Z,19.45
2022-12-14T05:44:49.410Z,20.23
2022-12-14T05:46:52.225Z,19.98
2022-12-14T05:48:54.818Z,20.65
2022-12-14T05:51:04.950Z,20.83
2022-12-14T05:53:08.220Z,20.77
2022-12-14T05:55:12.532Z,20.17
2022-12-14T05:57:15.135Z,19.88
2022-12-14T05:59:18.131Z,19.88
2022-12-14T06:01:23.360Z,20.05
2022-12-14T06:03:26.435Z,21.13
2022-12-14T06:05:29.260Z,21.58
2022-12-14T06:07:31.883Z,21.00
2022-12-14T06:09:34.464Z,21.17
2022-12-14T06:11:41.045Z,20.98
2022-12-14T06:13:44.710Z,21.25
2022-12-14T06:15:47.396Z,21.02
2022-12-14T06:17:50.306Z,21.63
2022-12-14T06:19:52.903Z,22.10
2022-12-14T06:21:56.694Z,19.98
2022-12-14T06:23:59.845Z,22.35
2022-12-14T06:26:02.630Z,21.13
2022-12-14T06:28:07.001Z,21.42
2022-12-14T06:30:12.048Z,22.08
2022-12-14T06:32:14.649Z,21.38
2022-12-14T06:34:18.216Z,21.75
2022-12-14T06:36:23.685Z,21.27
2022-12-14T06:38:26.270Z,21.65
2022-12-14T06:40:29.677Z,21.85
2022-12-14T06:42:32.270Z,21.55
2022-12-14T06:44:36.281Z,23.17
2022-12-14T06:46:41.465Z,22.83
2022-12-14T06:48:44.694Z,23.15
2022-12-14T06:50:47.451Z,21.13
2022-12-14T06:52:50.096Z,24.30
2022-12-14T06:54:52.666Z,23.80
2022-12-14T06:56:55.254Z,23.52
2022-12-14T06:58:58.237Z,23.58
2022-12-14T07:01:04.235Z,24.15
2022-12-14T07:03:07.042Z,24.67
2022-12-14T07:05:10.086Z,23.30
2022-12-14T07:07:12.691Z,23.45
2022-12-14T07:09:15.671Z,24.45
2022-12-14T07:11:18.473Z,24.73
2022-12-14T07:13:21.429Z,24.23
2022-12-14T07:15:24.061Z,22.60
2022-12-14T07:17:28.610Z,24.85
2022-12-14T07:19:31.209Z,23.42
2022-12-14T07:21:34.060Z,22.88
2022-12-14T07:23:38.381Z,22.45
2022-12-14T07:25:41.025Z,22.98
2022-12-14T07:27:43.683Z,22.38
2022-12-14T07:29:46.350Z,23.42
2022-12-14T07:31:49.929Z,22.98
2022-12-14T07:33:55.034Z,23.35
2022-12-14T07:36:03.607Z,22.90
2022-12-14T07:38:06.294Z,22.88
2022-12-14T07:40:10.617Z,24.10
2022-12-14T07:42:13.201Z,22.15
2022-12-14T07:44:15.933Z,24.58
2022-12-14T07:46:21.028Z,23.92
2022-12-14T07:48:23.675Z,23.08
2022-12-14T07:50:28.166Z,24.52
2022-12-14T07:52:37.135Z,23.27
2022-12-14T07:54:40.114Z,22.63
2022-12-14T07:56:44.765Z,24.00
2022-12-14T07:58:47.590Z,22.55
2022-12-14T08:00:50.198Z,23.25
2022-12-14T08:02:56.139Z,23.90
2022-12-14T08:04:58.948Z,22.35
2022-12-14T08:07:03.026Z,23.27
2022-12-14T08:09:07.261Z,24.13
2022-12-14T08:11:10.281Z,24.73
2022-12-14T08:13:12.921Z,22.90
2022-12-14T08:15:15.609Z,25.60
2022-12-14T08:17:18.268Z,24.50
2022-12-14T08:19:20.984Z,26.48
2022-12-14T08:21:25.100Z,24.65
2022-12-14T08:23:29.688Z,25.73
2022-12-14T08:25:32.589Z,26.60
2022-12-14T08:27:35.195Z,26.98
2022-12-14T08:29:37.774Z,28.13
2022-12-14T08:31:40.660Z,27.85
2022-12-14T08:33:44.243Z,27.02
2022-12-14T08:35:46.900Z,26.90
2022-12-14T08:37:49.496Z,26.10
2022-12-14T08:39:53.469Z,25.63
2022-12-14T08:41:56.542Z,25.23
2022-12-14T08:44:01.331Z,24.75
2022-12-14T08:46:08.903Z,24.55
2022-12-14T08:48:11.577Z,25.02
2022-12-14T08:50:14.283Z,24.55
2022-12-14T08:52:17.413Z,24.98
2022-12-14T08:54:20.025Z,24.92
2022-12-14T08:56:25.758Z,24.77
2022-12-14T08:58:28.332Z,26.20
2022-12-14T09:00:31.047Z,26.08
2022-12-14T09:02:33.833Z,25.30
2022-12-14T09:04:36.515Z,25.17
2022-12-14T09:06:40.321Z,28.02
2022-12-14T09:08:43.009Z,27.58
2022-12-14T09:10:50.404Z,26.85
2022-12-14T09:12:54.363Z,26.45
2022-12-14T09:14:56.924Z,25.60
2022-12-14T09:16:59.756Z,27.30
2022-12-14T09:19:02.373Z,27.58
2022-12-14T09:21:05.568Z,27.90
2022-12-14T09:23:08.185Z,28.98
2022-12-14T09:25:10.947Z,26.88
2022-12-14T09:27:13.538Z,29.38
2022-12-14T09:29:19.420Z,28.75
2022-12-14T09:31:24.160Z,28.42
2022-12-14T09:33:27.348Z,26.80
2022-12-14T09:35:30.287Z,28.40
2022-12-14T09:37:32.911Z,28.33
2022-12-14T09:39:36.724Z,27.73
2022-12-14T09:41:57.689Z,29.73
2022-12-14T09:44:24.701Z,29.00
2022-12-14T09:46:43.066Z,29.33
2022-12-14T09:48:45.743Z,28.95
2022-12-14T09:50:50.052Z,29.70
2022-12-14T09:52:54.832Z,28.98
2022-12-14T09:54:59.223Z,28.88
2022-12-14T09:57:05.474Z,29.75
2022-12-14T09:59:15.195Z,28.92
2022-12-14T10:01:38.888Z,31.58
2022-12-14T10:03:56.319Z,30.45
2022-12-14T10:06:22.519Z,29.65
2022-12-14T10:08:29.335Z,29.70
2022-12-14T10:10:41.587Z,29.30
2022-12-14T10:12:53.269Z,28.38
2022-12-14T10:15:11.085Z,29.90
2022-12-14T10:17:27.168Z,29.00
2022-12-14T10:19:38.612Z,27.92
2022-12-14T10:21:48.472Z,28.90
2022-12-14T10:23:56.721Z,27.90
2022-12-14T10:26:07.575Z,28.83
2022-12-14T10:28:18.103Z,30.60
2022-12-14T10:30:22.451Z,30.73
2022-12-14T10:32:36.204Z,29.42
2022-12-14T10:34:41.225Z,29.30
2022-12-14T10:36:53.964Z,29.63
2022-12-14T10:39:00.258Z,28.65
2022-12-14T10:41:15.431Z,28.63
2022-12-14T10:43:35.649Z,27.20
2022-12-14T10:45:47.130Z,28.13
2022-12-14T10:47:57.039Z,29.58
2022-12-14T10:50:06.817Z,30.38
2022-12-14T10:52:16.814Z,30.45
2022-12-14T10:54:27.780Z,31.65
2022-12-14T10:56:33.890Z,32.87
2022-12-14T10:58:36.581Z,33.08
2022-12-14T11:00:39.842Z,31.60
2022-12-14T11:02:44.880Z,33.35
2022-12-14T11:04:56.509Z,32.35
2022-12-14T11:07:01.213Z,31.98
2022-12-14T11:09:21.183Z,30.48
2022-12-14T11:11:25.901Z,28.08
2022-12-14T11:13:28.636Z,30.05
2022-12-14T11:15:37.697Z,29.67
2022-12-14T11:17:42.864Z,29.85
2022-12-14T11:19:45.695Z,30.55
2022-12-14T11:21:51.094Z,29.60
2022-12-14T11:23:56.035Z,32.00
2022-12-14T11:26:00.717Z,32.10
2022-12-14T11:28:15.189Z,33.03
2022-12-14T11:30:17.935Z,32.83
2022-12-14T11:32:24.983Z,32.08
2022-12-14T11:34:34.472Z,33.17
2022-12-14T11:36:39.000Z,33.28
2022-12-14T11:38:42.968Z,35.10
2022-12-14T11:40:46.672Z,32.97
2022-12-14T11:42:50.862Z,31.67
2022-12-14T11:44:53.997Z,33.42
2022-12-14T11:47:03.649Z,33.13
2022-12-14T11:49:19.281Z,32.35
2022-12-14T11:51:21.933Z,32.65
2022-12-14T11:53:24.552Z,33.20
2022-12-14T11:55:29.420Z,32.97
2022-12-14T11:57:35.938Z,35.30
2022-12-14T11:59:42.162Z,33.80
2022-12-14T12:01:45.416Z,33.67
2022-12-14T12:03:51.086Z,33.92
2022-12-14T12:05:55.788Z,34.13
2022-12-14T12:08:00.019Z,35.63
2022-12-14T12:10:15.930Z,33.90
2022-12-14T12:12:22.492Z,32.78
2022-12-14T12:14:32.526Z,34.42
2022-12-14T12:16:37.542Z,35.40
2022-12-14T12:18:46.613Z,36.05
2022-12-14T12:20:54.648Z,35.28
2022-12-14T12:23:02.473Z,39.88
2022-12-14T12:25:29.627Z,37.40
2022-12-14T12:27:33.869Z,38.10
2022-12-14T12:29:42.429Z,38.33
2022-12-14T12:31:51.667Z,38.05
2022-12-14T12:33:59.152Z,39.28
2022-12-14T12:36:04.415Z,40.85
2022-12-14T12:38:13.776Z,38.67
2022-12-14T12:40:20.543Z,42.90
2022-12-14T12:42:27.856Z,40.47
2022-12-14T12:44:49.572Z,40.70
2022-12-14T12:47:31.146Z,42.17
2022-12-14T12:49:40.532Z,40.42
2022-12-14T12:51:47.870Z,40.17
2022-12-14T12:53:56.019Z,39.13
2022-12-14T12:56:06.308Z,39.15
2022-12-14T12:58:19.759Z,39.95
2022-12-14T13:00:25.948Z,38.15
2022-12-14T13:02:32.544Z,37.90
2022-12-14T13:04:39.230Z,37.50
2022-12-14T13:06:48.900Z,39.03
2022-12-14T13:08:58.368Z,39.33
2022-12-14T13:13:30.167Z,39.08
2022-12-14T13:15:39.435Z,40.60
2022-12-14T13:17:46.789Z,41.88
2022-12-14T13:19:54.697Z,40.03
2022-12-14T13:22:05.153Z,40.40
2022-12-14T13:24:17.969Z,37.85
2022-12-14T13:26:59.004Z,34.80
2022-12-14T13:29:08.859Z,35.47
2022-12-14T13:31:20.934Z,32.63
2022-12-14T13:33:51.174Z,34.15
2022-12-14T13:36:15.456Z,32.70
2022-12-14T13:38:36.635Z,33.97
2022-12-14T13:41:13.553Z,34.00
2022-12-14T13:43:35.314Z,34.58
2022-12-14T13:45:41.210Z,33.30
2022-12-14T13:47:49.385Z,34.33
2022-12-14T13:50:33.838Z,34.17
2022-12-14T13:52:38.721Z,33.20
2022-12-14T13:54:41.493Z,32.70
2022-12-14T13:56:44.161Z,35.05
2022-12-14T13:58:49.462Z,33.60
2022-12-14T14:00:58.991Z,34.35
2022-12-14T14:03:03.141Z,33.65
2022-12-14T14:05:38.758Z,31.95
2022-12-14T14:07:52.032Z,34.67
2022-12-14T14:10:01.497Z,32.90
2022-12-14T14:12:05.545Z,34.40
2022-12-14T14:14:16.294Z,33.20
2022-12-14T14:16:28.707Z,34.38
2022-12-14T14:18:38.173Z,32.60
2022-12-14T14:20:42.597Z,34.38
2022-12-14T14:23:23.745Z,31.75
2022-12-14T14:25:40.447Z,33.22
2022-12-14T14:27:50.846Z,33.90
2022-12-14T14:29:55.092Z,36.70
2022-12-14T14:32:00.854Z,38.50
2022-12-14T14:34:06.067Z,38.85
2022-12-14T14:36:10.174Z,38.90
2022-12-14T14:38:26.000Z,39.30
2022-12-14T14:41:14.004Z,37.22
2022-12-14T14:43:03.961Z,38.70
2022-12-14T14:45:09.244Z,37.83
2022-12-14T14:47:21.975Z,37.00
2022-12-14T14:49:31.404Z,37.42
2022-12-14T14:51:37.122Z,36.92
2022-12-14T14:53:40.507Z,37.58
2022-12-14T14:55:58.198Z,37.70
2022-12-14T14:58:06.040Z,39.75
2022-12-14T15:00:12.302Z,38.17
2022-12-14T15:02:31.531Z,39.13
2022-12-14T15:04:44.906Z,37.80
2022-12-14T15:06:51.295Z,38.65
2022-12-14T15:08:59.744Z,36.75
2022-12-14T15:11:05.802Z,38.90
2022-12-14T15:13:17.856Z,37.35
2022-12-14T15:15:24.247Z,38.60
2022-12-14T15:17:27.639Z,39.35
2022-12-14T15:19:36.006Z,36.38
2022-12-14T15:21:40.227Z,40.03
2022-12-14T15:23:49.498Z,40.42
2022-12-14T15:26:01.454Z,40.45
2022-12-14T15:28:08.523Z,38.97
2022-12-14T15:30:20.524Z,39.53
2022-12-14T15:32:25.375Z,41.47
2022-12-14T15:34:28.712Z,41.45
2022-12-14T15:36:35.355Z,41.40
2022-12-14T15:38:39.419Z,41.40
2022-12-14T15:40:42.436Z,40.30
2022-12-14T15:42:49.261Z,39.47
2022-12-14T15:44:52.454Z,40.70
2022-12-14T15:46:56.200Z,42.45
2022-12-14T15:49:00.697Z,40.50
2022-12-14T15:51:05.373Z,40.38
2022-12-14T15:53:14.813Z,40.00
2022-12-14T15:55:36.121Z,39.67
2022-12-14T15:57:39.512Z,41.88
2022-12-14T15:59:45.491Z,42.88
2022-12-14T16:02:06.447Z,38.47
2022-12-14T16:04:12.844Z,40.95
2022-12-14T16:06:17.136Z,39.65
2022-12-14T16:08:20.127Z,41.70
2022-12-14T16:10:26.327Z,40.30
2022-12-14T16:12:44.443Z,40.33
2022-12-14T16:14:54.130Z,38.67
2022-12-14T16:16:57.400Z,38.60
2022-12-14T16:19:20.385Z,38.00
2022-12-14T16:21:28.938Z,37.65
2022-12-14T16:23:33.946Z,39.38
2022-12-14T16:25:38.633Z,37.90
2022-12-14T16:27:45.067Z,38.72
2022-12-14T16:30:16.375Z,37.35
2022-12-14T16:32:20.884Z,36.78
2022-12-14T16:34:24.773Z,37.55
2022-12-14T16:36:27.547Z,38.13
2022-12-14T16:38:31.148Z,36.67
2022-12-14T16:40:36.538Z,36.58
2022-12-14T16:42:39.155Z,37.80
2022-12-14T16:44:43.105Z,35.40
2022-12-14T16:47:05.219Z,35.25
2022-12-14T16:49:23.998Z,36.72
2022-12-14T16:51:58.224Z,34.50
2022-12-14T16:53:55.859Z,35.17
2022-12-14T16:56:04.116Z,32.72
2022-12-14T16:58:07.276Z,33.30
2022-12-14T17:00:21.643Z,34.58
2022-12-14T17:02:31.825Z,33.65
2022-12-14T17:04:37.599Z,31.85
2022-12-14T17:06:46.426Z,33.45
2022-12-14T17:08:49.611Z,30.83
2022-12-14T17:10:52.312Z,32.30
2022-12-14T17:12:58.789Z,31.38
2022-12-14T17:15:01.355Z,31.65
2022-12-14T17:17:05.559Z,31.60
2022-12-14T17:19:08.404Z,32.30
2022-12-14T17:21:18.499Z,30.98
2022-12-14T17:23:21.161Z,30.98
2022-12-14T17:25:23.820Z,31.27
2022-12-14T17:27:26.949Z,32.33
2022-12-14T17:29:30.989Z,31.80
2022-12-14T17:31:33.746Z,31.85
2022-12-14T17:33:38.233Z,32.20
2022-12-14T17:35:41.195Z,32.42
2022-12-14T17:37:43.917Z,31.60
2022-12-14T17:39:46.808Z,33.00
2022-12-14T17:41:49.669Z,32.08
2022-12-14T17:43:56.807Z,30.25
2022-12-14T17:46:03.172Z,34.03
2022-12-14T17:48:06.415Z,31.17
2022-12-14T17:50:13.664Z,28.70
2022-12-14T17:52:19.179Z,26.42
2022-12-14T17:54:27.354Z,24.38
2022-12-14T17:56:31.564Z,23.10
2022-12-14T17:58:34.196Z,22.58
2022-12-14T18:00:54.761Z,22.02
2022-12-14T18:02:57.562Z,22.92
2022-12-14T18:05:00.378Z,24.20
2022-12-14T18:07:05.065Z,23.70
2022-12-14T18:09:08.011Z,23.20
2022-12-14T18:11:14.538Z,23.90
2022-12-14T18:13:17.201Z,23.80
2022-12-14T18:15:22.158Z,25.17
2022-12-14T18:17:24.782Z,23.05
2022-12-14T18:19:27.374Z,23.25
2022-12-14T18:21:30.871Z,23.67
2022-12-14T18:23:35.368Z,24.48
2022-12-14T18:25:41.868Z,23.30
2022-12-14T18:27:44.483Z,25.35
2022-12-14T18:29:47.219Z,22.50
2022-12-14T18:31:50.336Z,22.55
2022-12-14T18:33:53.141Z,22.92
2022-12-14T18:35:57.500Z,23.63
2022-12-14T18:38:00.373Z,22.58
2022-12-14T18:40:05.792Z,24.08
2022-12-14T18:42:10.052Z,22.70
2022-12-14T18:44:12.758Z,23.58
2022-12-14T18:46:16.172Z,23.80
2022-12-14T18:48:18.940Z,24.27
2022-12-14T18:50:22.632Z,23.20
2022-12-14T18:52:25.283Z,22.92
2022-12-14T18:54:28.028Z,23.27
2022-12-14T18:56:32.016Z,23.38
2022-12-14T18:58:34.617Z,23.25
2022-12-14T19:00:38.021Z,23.17
2022-12-14T19:02:41.118Z,21.73
2022-12-14T19:04:48.504Z,23.27
2022-12-14T19:06:51.766Z,22.65
2022-12-14T19:08:54.471Z,23.27
2022-12-14T19:10:57.160Z,23.92
2022-12-14T19:13:01.210Z,23.92
2022-12-14T19:15:03.904Z,23.13
2022-12-14T19:17:07.411Z,22.55
2022-12-14T19:19:10.118Z,22.85
2022-12-14T19:21:12.828Z,23.17
2022-12-14T19:23:17.290Z,24.15
2022-12-14T19:25:21.709Z,23.75
2022-12-14T19:28:00.944Z,23.52
2022-12-14T19:29:48.463Z,24.55
2022-12-14T19:31:54.268Z,22.85
2022-12-14T19:33:57.599Z,23.45
2022-12-14T19:36:00.220Z,23.98
2022-12-14T19:38:03.080Z,24.98
2022-12-14T19:40:11.691Z,24.65
2022-12-14T19:42:16.258Z,24.67
2022-12-14T19:44:18.921Z,25.58
2022-12-14T19:46:23.900Z,25.52
2022-12-14T19:48:26.762Z,25.52
2022-12-14T19:50:29.364Z,26.67
2022-12-14T19:52:32.020Z,25.98
2022-12-14T19:54:35.791Z,26.15
2022-12-14T19:56:38.479Z,23.27
2022-12-14T19:58:41.637Z,24.58
2022-12-14T20:00:44.247Z,23.17
2022-12-14T20:02:50.072Z,24.10
2022-12-14T20:04:52.966Z,21.55
2022-12-14T20:06:55.609Z,22.95
2022-12-14T20:08:59.055Z,23.05
2022-12-14T20:11:05.942Z,22.45
2022-12-14T20:13:08.593Z,21.73
2022-12-14T20:15:11.798Z,23.20
2022-12-14T20:17:14.500Z,22.55
2022-12-14T20:19:18.483Z,23.42
2022-12-14T20:21:23.039Z,24.23
2022-12-14T20:23:25.743Z,23.52
2022-12-14T20:25:28.360Z,22.42
2022-12-14T20:27:33.796Z,22.63
2022-12-14T20:29:40.088Z,23.98
2022-12-14T20:31:42.941Z,23.73
2022-12-14T20:33:45.977Z,23.45
2022-12-14T20:35:52.474Z,23.00
2022-12-14T20:37:55.569Z,23.70
2022-12-14T20:40:00.414Z,23.08
2022-12-14T20:42:03.130Z,21.83
2022-12-14T20:44:09.269Z,22.88
2022-12-14T20:46:26.032Z,22.70
2022-12-14T20:48:28.764Z,24.23
2022-12-14T20:50:31.373Z,22.90
2022-12-14T20:52:35.349Z,24.73
2022-12-14T20:54:37.978Z,24.45
2022-12-14T20:56:40.965Z,23.17
2022-12-14T20:58:47.091Z,23.67
2022-12-14T21:00:49.878Z,23.15
2022-12-14T21:02:52.705Z,22.80
2022-12-14T21:04:55.454Z,23.42
2022-12-14T21:06:58.152Z,22.40
2022-12-14T21:09:11.579Z,23.63
2022-12-14T21:11:28.124Z,23.35
2022-12-14T21:13:31.176Z,20.52
2022-12-14T21:15:35.393Z,23.23
2022-12-14T21:17:39.127Z,23.73
2022-12-14T21:19:42.503Z,24.27
2022-12-14T21:21:51.666Z,23.50
2022-12-14T21:23:56.067Z,23.53
2022-12-14T21:26:03.552Z,23.67
2022-12-14T21:28:06.142Z,23.83
2022-12-14T21:30:12.611Z,22.60
2022-12-14T21:32:15.976Z,23.90
2022-12-14T21:34:20.957Z,24.25
2022-12-14T21:36:23.712Z,23.95
2022-12-14T21:38:27.868Z,23.77
2022-12-14T21:40:44.383Z,24.85
2022-12-14T21:42:50.492Z,22.40
2022-12-14T21:44:55.153Z,23.50
2022-12-14T21:46:58.300Z,24.20
2022-12-14T21:49:00.959Z,23.30
2022-12-14T21:51:07.311Z,25.05
2022-12-14T21:53:09.935Z,26.02
2022-12-14T21:55:12.577Z,22.98
2022-12-14T21:57:33.842Z,25.55
2022-12-14T21:59:39.380Z,23.88
2022-12-14T22:01:42.450Z,22.52
2022-12-14T22:03:45.184Z,23.17
2022-12-14T22:05:52.093Z,24.40
2022-12-14T22:07:54.663Z,24.95
2022-12-14T22:09:57.295Z,24.70
2022-12-14T22:11:59.883Z,24.85
2022-12-14T22:14:03.178Z,25.75
2022-12-14T22:16:07.884Z,25.05
2022-12-14T22:18:13.528Z,25.70
2022-12-14T22:20:16.279Z,24.35
2022-12-14T22:22:19.280Z,24.52
2022-12-14T22:24:23.349Z,25.38
2022-12-14T22:26:26.028Z,24.17
2022-12-14T22:28:28.655Z,24.38
2022-12-14T22:30:31.970Z,26.20
2022-12-14T22:32:36.132Z,24.63
2022-12-14T22:34:38.766Z,25.60
2022-12-14T22:36:41.379Z,25.73
2022-12-14T22:38:44.277Z,25.15
2022-12-14T22:40:46.909Z,27.00
2022-12-14T22:42:49.522Z,26.55
2022-12-14T22:44:52.168Z,26.00
2022-12-14T22:46:54.822Z,24.23
2022-12-14T22:48:58.850Z,25.88
2022-12-14T22:51:02.127Z,26.02
2022-12-14T22:53:04.786Z,23.77
2022-12-14T22:55:07.972Z,23.52
2022-12-14T22:57:15.925Z,24.02
2022-12-14T22:59:22.008Z,26.70
2022-12-14T23:01:25.344Z,24.08
2022-12-14T23:03:28.891Z,24.90
2022-12-14T23:05:33.361Z,25.15
2022-12-14T23:07:36.319Z,24.27
2022-12-14T23:09:56.419Z,25.17
2022-12-14T23:12:21.537Z,25.25
2022-12-14T23:14:42.123Z,24.27
2022-12-14T23:17:02.430Z,24.35
2022-12-14T23:19:22.768Z,24.27
2022-12-14T23:21:47.143Z,25.27
2022-12-14T23:24:07.469Z,23.42
2022-12-14T23:26:27.859Z,24.63
2022-12-14T23:28:50.543Z,24.10
2022-12-14T23:31:11.337Z,26.88
2022-12-14T23:33:32.091Z,22.98
2022-12-14T23:35:52.437Z,25.73
2022-12-14T23:38:13.841Z,24.10
2022-12-14T23:40:34.253Z,24.10
2022-12-14T23:42:54.637Z,24.25
2022-12-14T23:45:15.102Z,24.95
2022-12-14T23:47:35.081Z,25.48
2022-12-14T23:49:55.176Z,25.77
2022-12-14T23:52:15.312Z,24.98
2022-12-14T23:54:36.895Z,24.48
2022-12-14T23:56:57.052Z,25.23
2022-12-14T23:59:20.057Z,25.50
